Opelika, AL (36801)

3:10 PM CST on March 06, 2015 (GMT -0600)
Opelika | Change Station
CLOSE
Current Station
Personal Weather Station
Location: Opelika, AL
Elevation: 850 ft
Nearby Weather Stations

Elev 850 ft 32.67 °N, 85.38 °W | Updated 45 seconds ago

Clear
Clear
53.2 °F
Feels Like 53.2 °F
N
0.0
Wind Variable Wind from SW
Gusts 0.0 mph

Today
High -- | Low -- °F
--% Chance of Precip.
Yesterday
High -- | Low -- °F
Precip. -- in
6:03 AM 5:42 PM
Full, 99% visible
Pressure 30.40 in
Visibility 10.0 miles
Clouds Few 3800 ft
Dew Point 30 °F
Humidity 41%
Rainfall in
Snow Depth Not available.
UV 1.0 out of 12
Pollen 8.40 out of 12
Air Quality Not available.
Flu Activity Not available.
METAR KAUO 062035Z AUTO 33007KT 10SM FEW038 10/M01 A3040 RMK AO1

More Conditions Fewer Conditions

Pressure 30.40 in
Visibility 10.0 miles
Clouds Few 3800 ft
Dew Point 30 °F
Humidity 41%
Rainfall in
Snow Depth Not available.
UV 1.0 out of 12
Pollen 8.40 out of 12
Air Quality Not available.
Flu Activity Not available.
METAR KAUO 062035Z AUTO 33007KT 10SM FEW038 10/M01 A3040 RMK AO1

More Conditions Fewer Conditions

10-Day Weather Forecast

Almanac

Astronomy

Mar. 06, 2015 Rise Set
Actual Time
Civil Twilight
Nautical Twilight
Astronomical Twilight
Moon
Length of Visible Light
Length of Day
Tomorrow will be .
, % of the Moon is Illuminated

Today's Extremes

State Highs State Lows

Community

WunderPhotos

Upload Photos

1,803,401 photos uploaded!

WunderBlogs® & News

Nearby

Air Quality

  Air Quality AQ Index Pollutant
Not available.

Snow Depth

Station Depth Elevation

Earthquake Activity

City Distance Mag. Time & Date
Minimum magnitude displayed is 2.5.

Coastal Water Temperatures

Place Temperature

Nearby Weather Stations